createdAt,value
2023-05-05T00:00:00.295Z,0
2023-05-05T00:05:00.366Z,0
2023-05-05T00:10:00.296Z,0
2023-05-05T00:15:00.370Z,0
2023-05-05T00:20:00.306Z,0
2023-05-05T00:25:00.305Z,0
2023-05-05T00:30:00.347Z,0
2023-05-05T00:35:00.315Z,0
2023-05-05T00:40:00.299Z,0
2023-05-05T00:45:00.328Z,0
2023-05-05T00:50:00.327Z,0
2023-05-05T00:55:00.316Z,0
2023-05-05T01:00:00.382Z,0
2023-05-05T01:05:00.328Z,0
2023-05-05T01:10:15.003Z,0
2023-05-05T01:15:00.315Z,0
2023-05-05T01:20:00.320Z,0
2023-05-05T01:25:00.383Z,0
2023-05-05T01:30:00.335Z,0
2023-05-05T01:35:00.391Z,0
2023-05-05T01:40:00.310Z,0
2023-05-05T01:45:00.317Z,0
2023-05-05T01:50:00.329Z,0
2023-05-05T01:55:00.336Z,0
2023-05-05T02:00:00.367Z,0
2023-05-05T02:05:00.305Z,0
2023-05-05T02:10:00.330Z,0
2023-05-05T02:15:00.441Z,0
2023-05-05T02:20:00.304Z,0
2023-05-05T02:25:00.299Z,0
2023-05-05T02:30:00.391Z,0
2023-05-05T02:35:00.330Z,0
2023-05-05T02:40:00.388Z,0
2023-05-05T02:45:00.316Z,0
2023-05-05T02:50:00.310Z,0
2023-05-05T02:55:00.335Z,0
2023-05-05T03:00:00.301Z,0
2023-05-05T03:05:00.314Z,0
2023-05-05T03:10:00.349Z,0
2023-05-05T03:15:00.349Z,0
2023-05-05T03:20:04.816Z,0
2023-05-05T03:25:00.334Z,0
2023-05-05T03:30:00.341Z,0
2023-05-05T03:35:00.330Z,10
2023-05-05T03:40:00.343Z,17
2023-05-05T03:45:00.323Z,31
2023-05-05T03:50:00.335Z,63
2023-05-05T03:55:00.332Z,125
2023-05-05T04:00:00.314Z,135
2023-05-05T04:05:00.355Z,222
2023-05-05T04:10:00.318Z,309
2023-05-05T04:15:00.412Z,430
2023-05-05T04:20:00.308Z,635
2023-05-05T04:25:00.325Z,804
2023-05-05T04:30:00.461Z,905
2023-05-05T04:35:00.340Z,1017
2023-05-05T04:40:00.424Z,1143
2023-05-05T04:45:00.300Z,1285
2023-05-05T04:50:00.357Z,1444
2023-05-05T04:55:00.436Z,1625
2023-05-05T05:00:00.357Z,1833
2023-05-05T05:05:00.358Z,2061
2023-05-05T05:10:00.420Z,2061
2023-05-05T05:15:00.383Z,2061
2023-05-05T05:20:00.410Z,2061
2023-05-05T05:25:00.361Z,2061
2023-05-05T05:30:00.376Z,2326
2023-05-05T05:35:00.362Z,2616
2023-05-05T05:40:00.390Z,2616
2023-05-05T05:45:00.373Z,2616
2023-05-05T05:50:00.374Z,2616
2023-05-05T05:55:00.391Z,2616
2023-05-05T06:00:01.976Z,2794
2023-05-05T06:05:00.372Z,2957
2023-05-05T06:10:10.767Z,3330
2023-05-05T06:15:00.373Z,3330
2023-05-05T06:20:00.413Z,3330
2023-05-05T06:25:00.448Z,3330
2023-05-05T06:30:00.338Z,3330
2023-05-05T06:35:00.388Z,3330
2023-05-05T06:40:00.463Z,3745
2023-05-05T06:45:00.384Z,3745
2023-05-05T06:50:00.362Z,3745
2023-05-05T06:55:00.348Z,4228
2023-05-05T07:00:00.387Z,4228
2023-05-05T07:05:00.423Z,4814
2023-05-05T07:10:00.377Z,5416
2023-05-05T07:15:04.796Z,5416
2023-05-05T07:20:00.454Z,5416
2023-05-05T07:25:00.378Z,6126
2023-05-05T07:30:00.364Z,7381
2023-05-05T07:35:00.404Z,8507
2023-05-05T07:40:00.380Z,9601
2023-05-05T07:45:00.365Z,9166
2023-05-05T07:50:00.358Z,9563
2023-05-05T07:55:00.347Z,11841
2023-05-05T08:00:00.333Z,16406
2023-05-05T08:05:00.363Z,16417
2023-05-05T08:10:00.367Z,17824
2023-05-05T08:15:00.369Z,20068
2023-05-05T08:20:00.363Z,22610
2023-05-05T08:25:00.349Z,25445
2023-05-05T08:30:00.377Z,25445
2023-05-05T08:35:00.361Z,28629
2023-05-05T08:40:00.555Z,33266
2023-05-05T08:45:00.376Z,39610
2023-05-05T08:50:00.376Z,10688
2023-05-05T08:55:00.469Z,15374
2023-05-05T09:00:00.474Z,44566
2023-05-05T09:05:00.386Z,18989
2023-05-05T09:10:00.376Z,22641
2023-05-05T09:15:01.624Z,12006
2023-05-05T09:20:00.482Z,17322
2023-05-05T09:25:00.500Z,15311
2023-05-05T09:30:00.397Z,17326
2023-05-05T09:35:00.356Z,25032
2023-05-05T09:40:00.396Z,10575
2023-05-05T09:45:00.513Z,15403
2023-05-05T09:50:00.458Z,17370
2023-05-05T09:55:00.329Z,17370
2023-05-05T10:00:00.470Z,17370
2023-05-05T10:05:02.172Z,12100
2023-05-05T10:10:00.382Z,10770
2023-05-05T10:15:00.361Z,13734
2023-05-05T10:20:00.390Z,8989
2023-05-05T10:25:00.364Z,7998
2023-05-05T10:30:00.460Z,7998
2023-05-05T10:35:00.357Z,13677
2023-05-05T10:40:00.370Z,15403
2023-05-05T10:45:00.440Z,15403
2023-05-05T10:50:00.376Z,15403
2023-05-05T10:55:00.390Z,15403
2023-05-05T11:00:00.359Z,19616
2023-05-05T11:05:00.355Z,22090
2023-05-05T11:10:00.342Z,22090
2023-05-05T11:15:00.370Z,17414
2023-05-05T11:20:00.356Z,15403
2023-05-05T11:25:00.451Z,7379
2023-05-05T11:30:00.342Z,7350
2023-05-05T11:35:00.380Z,10588
2023-05-05T11:40:00.368Z,7432
2023-05-05T11:45:00.382Z,4546
2023-05-05T11:50:00.364Z,2743
2023-05-05T11:55:00.353Z,3479
2023-05-05T12:00:00.352Z,2672
2023-05-05T12:05:00.445Z,1829
2023-05-05T12:10:00.352Z,1621
2023-05-05T12:15:00.364Z,2667
2023-05-05T12:20:00.469Z,4392
2023-05-05T12:25:00.358Z,4563
2023-05-05T12:30:00.359Z,4563
2023-05-05T12:35:00.371Z,3901
2023-05-05T12:40:00.412Z,3901
2023-05-05T12:45:00.341Z,3901
2023-05-05T12:50:00.407Z,3465
2023-05-05T12:55:00.382Z,3079
2023-05-05T13:00:00.447Z,2425
2023-05-05T13:05:00.308Z,2158
2023-05-05T13:10:00.343Z,2158
2023-05-05T13:15:00.413Z,2741
2023-05-05T13:20:00.547Z,3467
2023-05-05T13:25:00.372Z,3911
2023-05-05T13:30:00.401Z,3085
2023-05-05T13:35:00.462Z,3085
2023-05-05T13:40:00.362Z,3085
2023-05-05T13:45:00.357Z,2155
2023-05-05T13:50:00.317Z,2155
2023-05-05T13:55:00.456Z,2738
2023-05-05T14:00:00.485Z,3926
2023-05-05T14:05:00.395Z,5647
2023-05-05T14:10:00.385Z,6349
2023-05-05T14:15:00.362Z,7140
2023-05-05T14:20:00.333Z,9061
2023-05-05T14:25:00.342Z,9061
2023-05-05T14:30:00.394Z,8020
2023-05-05T14:35:00.368Z,8020
2023-05-05T14:40:00.384Z,8048
2023-05-05T14:45:00.352Z,5660
2023-05-05T14:50:00.359Z,5025
2023-05-05T14:55:00.404Z,5025
2023-05-05T15:00:00.362Z,8379
2023-05-05T15:05:00.559Z,26675
2023-05-05T15:10:00.507Z,18484
2023-05-05T15:15:00.493Z,24831
2023-05-05T15:20:00.414Z,18518
2023-05-05T15:25:00.344Z,24021
2023-05-05T15:30:00.397Z,10617
2023-05-05T15:35:00.344Z,8291
2023-05-05T15:40:00.356Z,22699
2023-05-05T15:45:00.512Z,25621
2023-05-05T15:50:00.403Z,29007
2023-05-05T15:55:00.343Z,32742
2023-05-05T16:00:00.359Z,32742
2023-05-05T16:05:00.370Z,30253
2023-05-05T16:10:00.413Z,27868
2023-05-05T16:15:00.385Z,27868
2023-05-05T16:20:00.370Z,24791
2023-05-05T16:25:00.354Z,21832
2023-05-05T16:30:00.389Z,19280
2023-05-05T16:35:00.408Z,14829
2023-05-05T16:40:01.829Z,16062
2023-05-05T16:45:00.356Z,16062
2023-05-05T16:50:00.381Z,16062
2023-05-05T16:55:00.353Z,12109
2023-05-05T17:00:00.348Z,6166
2023-05-05T17:05:00.558Z,5573
2023-05-05T17:10:00.351Z,7340
2023-05-05T17:15:00.593Z,9669
2023-05-05T17:20:00.364Z,8596
2023-05-05T17:25:00.449Z,7644
2023-05-05T17:30:00.503Z,7644
2023-05-05T17:35:00.353Z,6801
2023-05-05T17:40:00.349Z,5553
2023-05-05T17:45:00.513Z,5553
2023-05-05T17:50:00.365Z,5553
2023-05-05T17:55:00.430Z,4381
2023-05-05T18:00:00.378Z,3880
2023-05-05T18:05:00.354Z,3444
2023-05-05T18:10:00.418Z,3065
2023-05-05T18:15:00.428Z,2728
2023-05-05T18:20:00.359Z,2427
2023-05-05T18:25:00.352Z,2175
2023-05-05T18:30:00.372Z,2175
2023-05-05T18:35:00.386Z,1930
2023-05-05T18:40:00.334Z,1189
2023-05-05T18:45:00.308Z,936
2023-05-05T18:50:00.394Z,735
2023-05-05T18:55:00.628Z,515
2023-05-05T19:00:00.469Z,370
2023-05-05T19:05:00.849Z,223
2023-05-05T19:10:00.454Z,200
2023-05-05T19:15:00.455Z,121
2023-05-05T19:20:00.511Z,73
2023-05-05T19:25:00.426Z,38
2023-05-05T19:30:00.468Z,24
2023-05-05T19:35:00.599Z,10
2023-05-05T19:40:00.421Z,10
2023-05-05T19:45:00.475Z,6
2023-05-05T19:50:00.457Z,3
2023-05-05T19:55:00.470Z,3
2023-05-05T20:00:00.622Z,3
2023-05-05T20:05:00.447Z,3
2023-05-05T20:10:00.432Z,3
2023-05-05T20:15:00.456Z,3
2023-05-05T20:20:00.500Z,3
2023-05-05T20:25:00.476Z,3
2023-05-05T20:30:00.437Z,3
2023-05-05T20:35:00.511Z,0
2023-05-05T20:40:00.529Z,0
2023-05-05T20:45:00.543Z,0
2023-05-05T20:50:00.498Z,0
2023-05-05T20:55:00.451Z,0
2023-05-05T21:00:00.620Z,0
2023-05-05T21:05:00.503Z,0
2023-05-05T21:10:00.451Z,0
2023-05-05T21:15:00.447Z,0
2023-05-05T21:20:00.495Z,0
2023-05-05T21:25:00.431Z,0
2023-05-05T21:30:00.466Z,0
2023-05-05T21:35:00.503Z,0
2023-05-05T21:40:00.490Z,0
2023-05-05T21:45:00.457Z,0
2023-05-05T21:50:00.528Z,0
2023-05-05T21:55:00.475Z,0
2023-05-05T22:00:00.460Z,0
2023-05-05T22:05:00.477Z,0
2023-05-05T22:10:00.448Z,0
2023-05-05T22:15:00.475Z,0
2023-05-05T22:20:00.542Z,0
2023-05-05T22:25:00.488Z,0
2023-05-05T22:30:00.451Z,0
2023-05-05T22:35:00.448Z,0
2023-05-05T22:40:00.451Z,0
2023-05-05T22:45:00.515Z,0
2023-05-05T22:50:00.509Z,0
2023-05-05T22:55:00.567Z,0
2023-05-05T23:00:00.459Z,0
2023-05-05T23:05:00.466Z,0
2023-05-05T23:10:00.446Z,0
2023-05-05T23:15:00.450Z,0
2023-05-05T23:20:00.450Z,0
2023-05-05T23:25:00.544Z,0
2023-05-05T23:30:00.482Z,0
2023-05-05T23:35:00.459Z,0
2023-05-05T23:40:00.452Z,0
2023-05-05T23:45:00.475Z,0
2023-05-05T23:50:00.486Z,0
2023-05-05T23:55:00.504Z,0
